sensor_id;sensor_type;location;lat;lon;timestamp;P1;durP1;ratioP1;P2;durP2;ratioP2
57247;SDS011;55809;46.618;10.764;2024-02-04T00:01:57;0.38;;;0.30;;
57247;SDS011;55809;46.618;10.764;2024-02-04T00:04:24;0.75;;;0.15;;
57247;SDS011;55809;46.618;10.764;2024-02-04T00:06:52;2.10;;;0.20;;
57247;SDS011;55809;46.618;10.764;2024-02-04T00:09:19;0.47;;;0.10;;
57247;SDS011;55809;46.618;10.764;2024-02-04T00:11:46;0.30;;;0.25;;
57247;SDS011;55809;46.618;10.764;2024-02-04T00:14:13;1.08;;;0.32;;
57247;SDS011;55809;46.618;10.764;2024-02-04T00:16:40;0.25;;;0.10;;
57247;SDS011;55809;46.618;10.764;2024-02-04T00:19:08;0.32;;;0.10;;
57247;SDS011;55809;46.618;10.764;2024-02-04T00:21:36;0.55;;;0.30;;
57247;SDS011;55809;46.618;10.764;2024-02-04T00:24:03;0.10;;;0.10;;
57247;SDS011;55809;46.618;10.764;2024-02-04T00:26:30;1.00;;;0.10;;
57247;SDS011;55809;46.618;10.764;2024-02-04T00:28:57;0.85;;;0.30;;
57247;SDS011;55809;46.618;10.764;2024-02-04T00:31:24;0.65;;;0.17;;
57247;SDS011;55809;46.618;10.764;2024-02-04T00:33:51;0.52;;;0.15;;
57247;SDS011;55809;46.618;10.764;2024-02-04T00:36:19;0.30;;;0.10;;
57247;SDS011;55809;46.618;10.764;2024-02-04T00:38:46;0.52;;;0.10;;
57247;SDS011;55809;46.618;10.764;2024-02-04T00:41:13;0.43;;;0.10;;
57247;SDS011;55809;46.618;10.764;2024-02-04T00:43:40;0.20;;;0.20;;
57247;SDS011;55809;46.618;10.764;2024-02-04T00:46:07;0.85;;;0.20;;
57247;SDS011;55809;46.618;10.764;2024-02-04T00:48:35;0.52;;;0.10;;
57247;SDS011;55809;46.618;10.764;2024-02-04T00:51:02;0.98;;;0.20;;
57247;SDS011;55809;46.618;10.764;2024-02-04T00:53:31;0.38;;;0.15;;
57247;SDS011;55809;46.618;10.764;2024-02-04T00:56:00;0.88;;;0.20;;
57247;SDS011;55809;46.618;10.764;2024-02-04T00:58:27;0.30;;;0.20;;
57247;SDS011;55809;46.618;10.764;2024-02-04T01:00:54;0.15;;;0.10;;
57247;SDS011;55809;46.618;10.764;2024-02-04T01:03:20;0.22;;;0.08;;
57247;SDS011;55809;46.618;10.764;2024-02-04T01:05:47;0.50;;;0.20;;
57247;SDS011;55809;46.618;10.764;2024-02-04T01:08:14;1.75;;;0.20;;
57247;SDS011;55809;46.618;10.764;2024-02-04T01:10:42;0.32;;;0.20;;
57247;SDS011;55809;46.618;10.764;2024-02-04T01:13:09;0.57;;;0.10;;
57247;SDS011;55809;46.618;10.764;2024-02-04T01:15:36;1.15;;;0.20;;
57247;SDS011;55809;46.618;10.764;2024-02-04T01:18:03;0.65;;;0.15;;
57247;SDS011;55809;46.618;10.764;2024-02-04T01:20:30;0.47;;;0.10;;
57247;SDS011;55809;46.618;10.764;2024-02-04T01:22:57;0.57;;;0.25;;
57247;SDS011;55809;46.618;10.764;2024-02-04T01:25:24;0.55;;;0.20;;
57247;SDS011;55809;46.618;10.764;2024-02-04T01:27:52;0.65;;;0.10;;
57247;SDS011;55809;46.618;10.764;2024-02-04T01:30:19;0.05;;;0.00;;
57247;SDS011;55809;46.618;10.764;2024-02-04T01:32:46;0.60;;;0.13;;
57247;SDS011;55809;46.618;10.764;2024-02-04T01:35:13;0.40;;;0.17;;
57247;SDS011;55809;46.618;10.764;2024-02-04T01:37:41;1.35;;;0.20;;
57247;SDS011;55809;46.618;10.764;2024-02-04T01:40:09;1.35;;;0.35;;
57247;SDS011;55809;46.618;10.764;2024-02-04T01:42:36;0.60;;;0.10;;
57247;SDS011;55809;46.618;10.764;2024-02-04T01:45:05;0.35;;;0.20;;
57247;SDS011;55809;46.618;10.764;2024-02-04T01:47:32;0.32;;;0.20;;
57247;SDS011;55809;46.618;10.764;2024-02-04T01:50:00;1.95;;;0.20;;
57247;SDS011;55809;46.618;10.764;2024-02-04T01:52:28;0.40;;;0.20;;
57247;SDS011;55809;46.618;10.764;2024-02-04T01:54:56;0.10;;;0.10;;
57247;SDS011;55809;46.618;10.764;2024-02-04T01:57:25;0.38;;;0.17;;
57247;SDS011;55809;46.618;10.764;2024-02-04T01:59:52;1.02;;;0.10;;
57247;SDS011;55809;46.618;10.764;2024-02-04T02:02:22;0.45;;;0.10;;
57247;SDS011;55809;46.618;10.764;2024-02-04T02:04:50;0.50;;;0.20;;
57247;SDS011;55809;46.618;10.764;2024-02-04T02:07:17;1.45;;;0.20;;
57247;SDS011;55809;46.618;10.764;2024-02-04T02:09:45;0.10;;;0.10;;
57247;SDS011;55809;46.618;10.764;2024-02-04T02:12:13;1.20;;;0.30;;
57247;SDS011;55809;46.618;10.764;2024-02-04T02:14:45;0.82;;;0.10;;
57247;SDS011;55809;46.618;10.764;2024-02-04T02:17:16;2.65;;;0.45;;
57247;SDS011;55809;46.618;10.764;2024-02-04T02:19:54;0.90;;;0.20;;
57247;SDS011;55809;46.618;10.764;2024-02-04T02:22:29;0.60;;;0.10;;
57247;SDS011;55809;46.618;10.764;2024-02-04T02:24:59;0.35;;;0.15;;
57247;SDS011;55809;46.618;10.764;2024-02-04T02:27:30;0.75;;;0.25;;
57247;SDS011;55809;46.618;10.764;2024-02-04T02:29:57;0.30;;;0.10;;
57247;SDS011;55809;46.618;10.764;2024-02-04T02:32:24;0.20;;;0.10;;
57247;SDS011;55809;46.618;10.764;2024-02-04T02:34:51;1.55;;;0.25;;
57247;SDS011;55809;46.618;10.764;2024-02-04T02:37:21;0.73;;;0.13;;
57247;SDS011;55809;46.618;10.764;2024-02-04T02:39:56;0.13;;;0.10;;
57247;SDS011;55809;46.618;10.764;2024-02-04T02:42:30;0.00;;;0.00;;
57247;SDS011;55809;46.618;10.764;2024-02-04T02:44:59;0.52;;;0.10;;
57247;SDS011;55809;46.618;10.764;2024-02-04T02:47:27;0.15;;;0.10;;
57247;SDS011;55809;46.618;10.764;2024-02-04T02:49:56;0.80;;;0.10;;
57247;SDS011;55809;46.618;10.764;2024-02-04T02:52:23;0.10;;;0.10;;
57247;SDS011;55809;46.618;10.764;2024-02-04T02:54:50;0.32;;;0.10;;
57247;SDS011;55809;46.618;10.764;2024-02-04T02:57:18;0.38;;;0.20;;
57247;SDS011;55809;46.618;10.764;2024-02-04T02:59:45;0.17;;;0.10;;
57247;SDS011;55809;46.618;10.764;2024-02-04T03:02:12;0.10;;;0.00;;
57247;SDS011;55809;46.618;10.764;2024-02-04T03:04:40;0.20;;;0.10;;
57247;SDS011;55809;46.618;10.764;2024-02-04T03:07:06;0.40;;;0.30;;
57247;SDS011;55809;46.618;10.764;2024-02-04T03:09:33;0.47;;;0.15;;
57247;SDS011;55809;46.618;10.764;2024-02-04T03:12:00;0.38;;;0.17;;
57247;SDS011;55809;46.618;10.764;2024-02-04T03:14:28;0.10;;;0.03;;
57247;SDS011;55809;46.618;10.764;2024-02-04T03:16:55;1.10;;;0.20;;
57247;SDS011;55809;46.618;10.764;2024-02-04T03:19:22;0.43;;;0.00;;
57247;SDS011;55809;46.618;10.764;2024-02-04T03:21:49;0.40;;;0.10;;
57247;SDS011;55809;46.618;10.764;2024-02-04T03:24:16;0.90;;;0.10;;
57247;SDS011;55809;46.618;10.764;2024-02-04T03:26:43;0.30;;;0.20;;
57247;SDS011;55809;46.618;10.764;2024-02-04T03:29:10;0.25;;;0.10;;
57247;SDS011;55809;46.618;10.764;2024-02-04T03:31:38;0.15;;;0.10;;
57247;SDS011;55809;46.618;10.764;2024-02-04T03:34:05;0.38;;;0.15;;
57247;SDS011;55809;46.618;10.764;2024-02-04T03:36:32;0.30;;;0.10;;
57247;SDS011;55809;46.618;10.764;2024-02-04T03:38:59;0.63;;;0.20;;
57247;SDS011;55809;46.618;10.764;2024-02-04T03:41:26;0.00;;;0.00;;
57247;SDS011;55809;46.618;10.764;2024-02-04T03:43:53;0.52;;;0.17;;
57247;SDS011;55809;46.618;10.764;2024-02-04T03:46:20;1.05;;;0.20;;
57247;SDS011;55809;46.618;10.764;2024-02-04T03:48:49;1.08;;;0.10;;
57247;SDS011;55809;46.618;10.764;2024-02-04T03:51:16;0.20;;;0.17;;
57247;SDS011;55809;46.618;10.764;2024-02-04T03:53:43;0.22;;;0.20;;
57247;SDS011;55809;46.618;10.764;2024-02-04T03:56:10;0.38;;;0.20;;
57247;SDS011;55809;46.618;10.764;2024-02-04T03:58:38;0.22;;;0.03;;
57247;SDS011;55809;46.618;10.764;2024-02-04T04:01:05;0.60;;;0.10;;
57247;SDS011;55809;46.618;10.764;2024-02-04T04:03:31;0.60;;;0.10;;
57247;SDS011;55809;46.618;10.764;2024-02-04T04:06:00;0.10;;;0.10;;
57247;SDS011;55809;46.618;10.764;2024-02-04T04:08:27;1.35;;;0.30;;
57247;SDS011;55809;46.618;10.764;2024-02-04T04:10:53;0.45;;;0.10;;
57247;SDS011;55809;46.618;10.764;2024-02-04T04:13:20;0.55;;;0.20;;
57247;SDS011;55809;46.618;10.764;2024-02-04T04:15:47;0.40;;;0.25;;
57247;SDS011;55809;46.618;10.764;2024-02-04T04:18:14;1.77;;;0.22;;
57247;SDS011;55809;46.618;10.764;2024-02-04T04:20:41;0.73;;;0.20;;
57247;SDS011;55809;46.618;10.764;2024-02-04T04:23:09;0.55;;;0.10;;
57247;SDS011;55809;46.618;10.764;2024-02-04T04:25:36;0.45;;;0.10;;
57247;SDS011;55809;46.618;10.764;2024-02-04T04:28:03;0.63;;;0.20;;
57247;SDS011;55809;46.618;10.764;2024-02-04T04:30:30;0.45;;;0.10;;
57247;SDS011;55809;46.618;10.764;2024-02-04T04:32:57;0.17;;;0.10;;
57247;SDS011;55809;46.618;10.764;2024-02-04T04:35:24;1.10;;;0.10;;
57247;SDS011;55809;46.618;10.764;2024-02-04T04:37:51;0.35;;;0.10;;
57247;SDS011;55809;46.618;10.764;2024-02-04T04:40:20;0.43;;;0.20;;
57247;SDS011;55809;46.618;10.764;2024-02-04T04:42:47;0.60;;;0.20;;
57247;SDS011;55809;46.618;10.764;2024-02-04T04:45:14;1.77;;;0.20;;
57247;SDS011;55809;46.618;10.764;2024-02-04T04:47:41;0.17;;;0.10;;
57247;SDS011;55809;46.618;10.764;2024-02-04T04:50:08;0.75;;;0.20;;
57247;SDS011;55809;46.618;10.764;2024-02-04T04:52:35;0.63;;;0.20;;
57247;SDS011;55809;46.618;10.764;2024-02-04T04:55:02;0.55;;;0.10;;
57247;SDS011;55809;46.618;10.764;2024-02-04T04:57:30;1.30;;;0.20;;
57247;SDS011;55809;46.618;10.764;2024-02-04T04:59:57;0.52;;;0.25;;
57247;SDS011;55809;46.618;10.764;2024-02-04T05:02:29;0.15;;;0.00;;
57247;SDS011;55809;46.618;10.764;2024-02-04T05:04:56;0.10;;;0.10;;
57247;SDS011;55809;46.618;10.764;2024-02-04T05:07:23;0.35;;;0.15;;
57247;SDS011;55809;46.618;10.764;2024-02-04T05:09:51;0.15;;;0.05;;
57247;SDS011;55809;46.618;10.764;2024-02-04T05:12:18;0.38;;;0.20;;
57247;SDS011;55809;46.618;10.764;2024-02-04T05:14:46;0.82;;;0.10;;
57247;SDS011;55809;46.618;10.764;2024-02-04T05:17:13;0.57;;;0.30;;
57247;SDS011;55809;46.618;10.764;2024-02-04T05:19:40;0.63;;;0.20;;
57247;SDS011;55809;46.618;10.764;2024-02-04T05:22:07;1.15;;;0.25;;
57247;SDS011;55809;46.618;10.764;2024-02-04T05:24:35;0.13;;;0.13;;
57247;SDS011;55809;46.618;10.764;2024-02-04T05:27:02;1.27;;;0.35;;
57247;SDS011;55809;46.618;10.764;2024-02-04T05:29:30;0.10;;;0.10;;
57247;SDS011;55809;46.618;10.764;2024-02-04T05:31:59;0.93;;;0.20;;
57247;SDS011;55809;46.618;10.764;2024-02-04T05:34:25;0.38;;;0.10;;
57247;SDS011;55809;46.618;10.764;2024-02-04T05:36:52;1.60;;;0.20;;
57247;SDS011;55809;46.618;10.764;2024-02-04T05:39:19;0.55;;;0.17;;
57247;SDS011;55809;46.618;10.764;2024-02-04T05:41:48;0.70;;;0.20;;
57247;SDS011;55809;46.618;10.764;2024-02-04T05:44:15;0.55;;;0.20;;
57247;SDS011;55809;46.618;10.764;2024-02-04T05:46:42;0.30;;;0.20;;
57247;SDS011;55809;46.618;10.764;2024-02-04T05:49:10;0.68;;;0.25;;
57247;SDS011;55809;46.618;10.764;2024-02-04T05:51:38;1.45;;;0.50;;
57247;SDS011;55809;46.618;10.764;2024-02-04T05:54:05;1.15;;;0.10;;
57247;SDS011;55809;46.618;10.764;2024-02-04T05:56:32;0.40;;;0.20;;
57247;SDS011;55809;46.618;10.764;2024-02-04T05:58:59;1.83;;;0.45;;
57247;SDS011;55809;46.618;10.764;2024-02-04T06:01:26;10.77;;;6.13;;
57247;SDS011;55809;46.618;10.764;2024-02-04T06:03:53;7.15;;;4.13;;
57247;SDS011;55809;46.618;10.764;2024-02-04T06:06:21;4.20;;;1.80;;
57247;SDS011;55809;46.618;10.764;2024-02-04T06:08:48;2.20;;;1.25;;
57247;SDS011;55809;46.618;10.764;2024-02-04T06:11:15;2.75;;;1.55;;
57247;SDS011;55809;46.618;10.764;2024-02-04T06:13:43;1.52;;;0.90;;
57247;SDS011;55809;46.618;10.764;2024-02-04T06:16:10;1.45;;;0.40;;
57247;SDS011;55809;46.618;10.764;2024-02-04T06:18:38;0.57;;;0.40;;
57247;SDS011;55809;46.618;10.764;2024-02-04T06:21:05;1.02;;;0.40;;
57247;SDS011;55809;46.618;10.764;2024-02-04T06:23:34;0.73;;;0.43;;
57247;SDS011;55809;46.618;10.764;2024-02-04T06:26:01;0.93;;;0.40;;
57247;SDS011;55809;46.618;10.764;2024-02-04T06:28:29;1.23;;;0.65;;
57247;SDS011;55809;46.618;10.764;2024-02-04T06:30:56;1.25;;;0.40;;
57247;SDS011;55809;46.618;10.764;2024-02-04T06:33:23;0.90;;;0.28;;
57247;SDS011;55809;46.618;10.764;2024-02-04T06:35:50;1.17;;;0.40;;
57247;SDS011;55809;46.618;10.764;2024-02-04T06:38:17;4.03;;;1.45;;
57247;SDS011;55809;46.618;10.764;2024-02-04T06:40:45;2.97;;;0.88;;
57247;SDS011;55809;46.618;10.764;2024-02-04T06:43:12;2.08;;;0.80;;
57247;SDS011;55809;46.618;10.764;2024-02-04T06:45:39;3.17;;;0.60;;
57247;SDS011;55809;46.618;10.764;2024-02-04T06:48:06;2.17;;;0.45;;
57247;SDS011;55809;46.618;10.764;2024-02-04T06:50:34;2.58;;;0.90;;
57247;SDS011;55809;46.618;10.764;2024-02-04T06:53:02;1.20;;;0.60;;
57247;SDS011;55809;46.618;10.764;2024-02-04T06:55:29;0.60;;;0.30;;
57247;SDS011;55809;46.618;10.764;2024-02-04T06:57:57;0.47;;;0.38;;
57247;SDS011;55809;46.618;10.764;2024-02-04T07:00:24;1.05;;;0.93;;
57247;SDS011;55809;46.618;10.764;2024-02-04T07:02:51;1.40;;;0.52;;
57247;SDS011;55809;46.618;10.764;2024-02-04T07:05:18;0.80;;;0.40;;
57247;SDS011;55809;46.618;10.764;2024-02-04T07:07:47;0.93;;;0.40;;
57247;SDS011;55809;46.618;10.764;2024-02-04T07:10:14;1.42;;;0.65;;
57247;SDS011;55809;46.618;10.764;2024-02-04T07:12:41;1.67;;;0.50;;
57247;SDS011;55809;46.618;10.764;2024-02-04T07:15:09;2.53;;;0.82;;
57247;SDS011;55809;46.618;10.764;2024-02-04T07:17:36;1.13;;;0.40;;
57247;SDS011;55809;46.618;10.764;2024-02-04T07:20:04;5.32;;;1.35;;
57247;SDS011;55809;46.618;10.764;2024-02-04T07:22:32;5.57;;;1.33;;
57247;SDS011;55809;46.618;10.764;2024-02-04T07:25:00;4.47;;;1.38;;
57247;SDS011;55809;46.618;10.764;2024-02-04T07:27:27;5.95;;;1.67;;
57247;SDS011;55809;46.618;10.764;2024-02-04T07:29:54;6.22;;;1.60;;
57247;SDS011;55809;46.618;10.764;2024-02-04T07:32:24;2.05;;;0.50;;
57247;SDS011;55809;46.618;10.764;2024-02-04T07:34:51;3.67;;;0.60;;
57247;SDS011;55809;46.618;10.764;2024-02-04T07:37:17;1.92;;;0.63;;
57247;SDS011;55809;46.618;10.764;2024-02-04T07:39:44;1.05;;;0.40;;
57247;SDS011;55809;46.618;10.764;2024-02-04T07:42:11;2.80;;;0.63;;
57247;SDS011;55809;46.618;10.764;2024-02-04T07:44:38;4.07;;;0.90;;
57247;SDS011;55809;46.618;10.764;2024-02-04T07:47:05;2.33;;;0.40;;
57247;SDS011;55809;46.618;10.764;2024-02-04T07:49:33;2.00;;;0.68;;
57247;SDS011;55809;46.618;10.764;2024-02-04T07:52:00;2.67;;;0.65;;
57247;SDS011;55809;46.618;10.764;2024-02-04T07:54:27;4.20;;;1.52;;
57247;SDS011;55809;46.618;10.764;2024-02-04T07:56:54;3.58;;;0.90;;
57247;SDS011;55809;46.618;10.764;2024-02-04T07:59:21;2.78;;;0.85;;
57247;SDS011;55809;46.618;10.764;2024-02-04T08:01:48;3.85;;;1.20;;
57247;SDS011;55809;46.618;10.764;2024-02-04T08:04:15;3.47;;;0.70;;
57247;SDS011;55809;46.618;10.764;2024-02-04T08:06:44;2.38;;;0.52;;
57247;SDS011;55809;46.618;10.764;2024-02-04T08:09:10;1.80;;;0.55;;
57247;SDS011;55809;46.618;10.764;2024-02-04T08:11:38;2.65;;;0.80;;
57247;SDS011;55809;46.618;10.764;2024-02-04T08:14:04;2.55;;;0.68;;
57247;SDS011;55809;46.618;10.764;2024-02-04T08:16:31;2.92;;;0.80;;
57247;SDS011;55809;46.618;10.764;2024-02-04T08:18:58;8.27;;;1.40;;
57247;SDS011;55809;46.618;10.764;2024-02-04T08:21:25;13.02;;;4.35;;
57247;SDS011;55809;46.618;10.764;2024-02-04T08:23:53;4.70;;;1.92;;
57247;SDS011;55809;46.618;10.764;2024-02-04T08:26:21;5.68;;;1.67;;
57247;SDS011;55809;46.618;10.764;2024-02-04T08:28:48;1.75;;;0.45;;
57247;SDS011;55809;46.618;10.764;2024-02-04T08:31:14;2.25;;;0.70;;
57247;SDS011;55809;46.618;10.764;2024-02-04T08:33:41;4.78;;;1.15;;
57247;SDS011;55809;46.618;10.764;2024-02-04T08:36:08;4.13;;;2.17;;
57247;SDS011;55809;46.618;10.764;2024-02-04T08:38:36;2.30;;;0.75;;
57247;SDS011;55809;46.618;10.764;2024-02-04T08:41:04;2.03;;;0.60;;
57247;SDS011;55809;46.618;10.764;2024-02-04T08:43:31;5.68;;;1.30;;
57247;SDS011;55809;46.618;10.764;2024-02-04T08:45:58;1.63;;;0.73;;
57247;SDS011;55809;46.618;10.764;2024-02-04T08:48:25;1.27;;;0.20;;
57247;SDS011;55809;46.618;10.764;2024-02-04T08:50:52;1.63;;;0.38;;
57247;SDS011;55809;46.618;10.764;2024-02-04T08:53:19;2.60;;;0.50;;
57247;SDS011;55809;46.618;10.764;2024-02-04T08:55:47;2.33;;;0.50;;
57247;SDS011;55809;46.618;10.764;2024-02-04T08:58:15;1.65;;;0.57;;
57247;SDS011;55809;46.618;10.764;2024-02-04T09:00:42;1.58;;;0.40;;
57247;SDS011;55809;46.618;10.764;2024-02-04T09:03:09;6.55;;;2.90;;
57247;SDS011;55809;46.618;10.764;2024-02-04T09:05:35;4.05;;;1.40;;
57247;SDS011;55809;46.618;10.764;2024-02-04T09:08:03;5.68;;;1.85;;
57247;SDS011;55809;46.618;10.764;2024-02-04T09:10:30;5.95;;;2.90;;
57247;SDS011;55809;46.618;10.764;2024-02-04T09:12:57;4.82;;;1.83;;
57247;SDS011;55809;46.618;10.764;2024-02-04T09:15:25;6.13;;;2.80;;
57247;SDS011;55809;46.618;10.764;2024-02-04T09:17:52;9.90;;;5.75;;
57247;SDS011;55809;46.618;10.764;2024-02-04T09:20:19;4.53;;;1.77;;
57247;SDS011;55809;46.618;10.764;2024-02-04T09:22:46;5.72;;;2.53;;
57247;SDS011;55809;46.618;10.764;2024-02-04T09:25:13;5.07;;;2.05;;
57247;SDS011;55809;46.618;10.764;2024-02-04T09:27:40;10.30;;;3.03;;
57247;SDS011;55809;46.618;10.764;2024-02-04T09:30:07;2.47;;;0.80;;
57247;SDS011;55809;46.618;10.764;2024-02-04T09:32:36;4.05;;;1.10;;
57247;SDS011;55809;46.618;10.764;2024-02-04T09:35:03;3.60;;;1.25;;
57247;SDS011;55809;46.618;10.764;2024-02-04T09:37:31;4.30;;;0.93;;
57247;SDS011;55809;46.618;10.764;2024-02-04T09:39:58;8.55;;;2.63;;
57247;SDS011;55809;46.618;10.764;2024-02-04T09:42:25;2.88;;;0.85;;
57247;SDS011;55809;46.618;10.764;2024-02-04T09:44:53;1.85;;;0.40;;
57247;SDS011;55809;46.618;10.764;2024-02-04T09:47:20;10.10;;;1.77;;
57247;SDS011;55809;46.618;10.764;2024-02-04T09:49:48;5.07;;;1.02;;
57247;SDS011;55809;46.618;10.764;2024-02-04T09:52:18;4.15;;;1.20;;
57247;SDS011;55809;46.618;10.764;2024-02-04T09:54:48;1.35;;;0.38;;
57247;SDS011;55809;46.618;10.764;2024-02-04T09:57:16;2.60;;;0.60;;
57247;SDS011;55809;46.618;10.764;2024-02-04T09:59:45;6.90;;;1.75;;
57247;SDS011;55809;46.618;10.764;2024-02-04T10:02:12;1.63;;;0.50;;
57247;SDS011;55809;46.618;10.764;2024-02-04T10:04:43;2.92;;;0.63;;
57247;SDS011;55809;46.618;10.764;2024-02-04T10:07:14;4.30;;;0.90;;
57247;SDS011;55809;46.618;10.764;2024-02-04T10:09:43;3.38;;;0.57;;
57247;SDS011;55809;46.618;10.764;2024-02-04T10:12:12;1.83;;;0.40;;
57247;SDS011;55809;46.618;10.764;2024-02-04T10:14:42;5.05;;;0.85;;
57247;SDS011;55809;46.618;10.764;2024-02-04T10:17:09;1.27;;;0.30;;
57247;SDS011;55809;46.618;10.764;2024-02-04T10:19:42;3.65;;;0.70;;
57247;SDS011;55809;46.618;10.764;2024-02-04T10:22:09;4.30;;;1.02;;
57247;SDS011;55809;46.618;10.764;2024-02-04T10:24:38;1.42;;;0.40;;
57247;SDS011;55809;46.618;10.764;2024-02-04T10:27:15;3.42;;;0.40;;
57247;SDS011;55809;46.618;10.764;2024-02-04T10:29:58;4.05;;;0.95;;
57247;SDS011;55809;46.618;10.764;2024-02-04T10:32:26;3.50;;;0.65;;
57247;SDS011;55809;46.618;10.764;2024-02-04T10:34:54;5.13;;;0.88;;
57247;SDS011;55809;46.618;10.764;2024-02-04T10:37:21;14.57;;;2.70;;
57247;SDS011;55809;46.618;10.764;2024-02-04T10:39:50;5.95;;;1.60;;
57247;SDS011;55809;46.618;10.764;2024-02-04T10:42:23;23.75;;;5.72;;
57247;SDS011;55809;46.618;10.764;2024-02-04T10:44:52;15.93;;;3.45;;
57247;SDS011;55809;46.618;10.764;2024-02-04T10:47:21;36.45;;;9.52;;
57247;SDS011;55809;46.618;10.764;2024-02-04T10:49:50;75.38;;;21.52;;
57247;SDS011;55809;46.618;10.764;2024-02-04T10:52:19;135.60;;;38.75;;
57247;SDS011;55809;46.618;10.764;2024-02-04T10:54:46;21.80;;;6.30;;
57247;SDS011;55809;46.618;10.764;2024-02-04T10:57:20;29.45;;;8.93;;
57247;SDS011;55809;46.618;10.764;2024-02-04T10:59:54;16.88;;;4.53;;
57247;SDS011;55809;46.618;10.764;2024-02-04T11:02:36;33.05;;;9.45;;
57247;SDS011;55809;46.618;10.764;2024-02-04T11:05:20;10.32;;;2.60;;
57247;SDS011;55809;46.618;10.764;2024-02-04T11:07:54;9.60;;;2.00;;
57247;SDS011;55809;46.618;10.764;2024-02-04T11:25:02;15.50;;;4.45;;
57247;SDS011;55809;46.618;10.764;2024-02-04T11:27:55;11.23;;;3.05;;
57247;SDS011;55809;46.618;10.764;2024-02-04T11:30:32;8.93;;;1.90;;
57247;SDS011;55809;46.618;10.764;2024-02-04T11:33:03;3.28;;;0.90;;
57247;SDS011;55809;46.618;10.764;2024-02-04T11:36:02;12.52;;;3.30;;
57247;SDS011;55809;46.618;10.764;2024-02-04T11:38:48;6.82;;;1.38;;
57247;SDS011;55809;46.618;10.764;2024-02-04T12:21:29;28.08;;;7.68;;
57247;SDS011;55809;46.618;10.764;2024-02-04T12:24:18;67.00;;;21.05;;
57247;SDS011;55809;46.618;10.764;2024-02-04T12:27:01;37.33;;;10.95;;
57247;SDS011;55809;46.618;10.764;2024-02-04T12:29:36;19.95;;;6.00;;
57247;SDS011;55809;46.618;10.764;2024-02-04T12:32:09;25.25;;;8.65;;
57247;SDS011;55809;46.618;10.764;2024-02-04T12:34:49;36.67;;;14.15;;
57247;SDS011;55809;46.618;10.764;2024-02-04T12:41:08;6.57;;;2.53;;
57247;SDS011;55809;46.618;10.764;2024-02-04T12:43:57;17.83;;;5.88;;
57247;SDS011;55809;46.618;10.764;2024-02-04T12:46:50;9.48;;;3.17;;
57247;SDS011;55809;46.618;10.764;2024-02-04T12:49:23;8.27;;;1.95;;
57247;SDS011;55809;46.618;10.764;2024-02-04T12:52:05;3.45;;;0.75;;
57247;SDS011;55809;46.618;10.764;2024-02-04T12:54:43;11.45;;;2.55;;
57247;SDS011;55809;46.618;10.764;2024-02-04T12:57:29;8.38;;;2.50;;
57247;SDS011;55809;46.618;10.764;2024-02-04T13:00:29;3.83;;;1.17;;
57247;SDS011;55809;46.618;10.764;2024-02-04T13:03:15;8.07;;;1.95;;
57247;SDS011;55809;46.618;10.764;2024-02-04T13:06:22;2.17;;;0.63;;
57247;SDS011;55809;46.618;10.764;2024-02-04T13:12:01;2.08;;;0.40;;
57247;SDS011;55809;46.618;10.764;2024-02-04T13:17:54;8.07;;;1.70;;
57247;SDS011;55809;46.618;10.764;2024-02-04T13:20:36;2.58;;;0.60;;
57247;SDS011;55809;46.618;10.764;2024-02-04T13:23:19;1.83;;;0.50;;
57247;SDS011;55809;46.618;10.764;2024-02-04T13:26:06;4.35;;;1.08;;
57247;SDS011;55809;46.618;10.764;2024-02-04T13:28:48;1.20;;;0.20;;
57247;SDS011;55809;46.618;10.764;2024-02-04T13:31:22;1.27;;;0.28;;
57247;SDS011;55809;46.618;10.764;2024-02-04T13:37:04;2.10;;;0.38;;
57247;SDS011;55809;46.618;10.764;2024-02-04T13:39:41;1.15;;;0.20;;
57247;SDS011;55809;46.618;10.764;2024-02-04T13:42:24;1.10;;;0.38;;
57247;SDS011;55809;46.618;10.764;2024-02-04T13:45:00;1.55;;;0.20;;
57247;SDS011;55809;46.618;10.764;2024-02-04T13:47:47;0.90;;;0.13;;
57247;SDS011;55809;46.618;10.764;2024-02-04T13:50:20;1.48;;;0.15;;
57247;SDS011;55809;46.618;10.764;2024-02-04T13:53:05;2.55;;;0.80;;
57247;SDS011;55809;46.618;10.764;2024-02-04T13:55:53;2.67;;;0.85;;
57247;SDS011;55809;46.618;10.764;2024-02-04T13:58:30;5.65;;;1.40;;
57247;SDS011;55809;46.618;10.764;2024-02-04T14:01:01;7.20;;;3.08;;
57247;SDS011;55809;46.618;10.764;2024-02-04T14:03:43;2.92;;;1.20;;
57247;SDS011;55809;46.618;10.764;2024-02-04T14:06:14;4.22;;;1.65;;
57247;SDS011;55809;46.618;10.764;2024-02-04T14:08:44;3.88;;;1.30;;
57247;SDS011;55809;46.618;10.764;2024-02-04T14:11:23;2.30;;;0.70;;
57247;SDS011;55809;46.618;10.764;2024-02-04T14:14:05;6.72;;;3.13;;
57247;SDS011;55809;46.618;10.764;2024-02-04T14:16:48;1.30;;;0.70;;
57247;SDS011;55809;46.618;10.764;2024-02-04T14:19:19;2.47;;;1.08;;
57247;SDS011;55809;46.618;10.764;2024-02-04T14:25:24;2.85;;;1.10;;
57247;SDS011;55809;46.618;10.764;2024-02-04T14:30:58;10.25;;;4.90;;
57247;SDS011;55809;46.618;10.764;2024-02-04T14:33:42;3.13;;;1.00;;
57247;SDS011;55809;46.618;10.764;2024-02-04T14:36:24;2.70;;;0.70;;
57247;SDS011;55809;46.618;10.764;2024-02-04T14:38:59;6.80;;;2.65;;
57247;SDS011;55809;46.618;10.764;2024-02-04T14:41:29;5.05;;;1.40;;
57247;SDS011;55809;46.618;10.764;2024-02-04T14:44:04;1.58;;;0.70;;
57247;SDS011;55809;46.618;10.764;2024-02-04T14:46:38;2.83;;;0.70;;
57247;SDS011;55809;46.618;10.764;2024-02-04T14:49:11;0.90;;;0.40;;
57247;SDS011;55809;46.618;10.764;2024-02-04T14:51:45;1.48;;;0.30;;
57247;SDS011;55809;46.618;10.764;2024-02-04T14:54:28;3.17;;;0.43;;
57247;SDS011;55809;46.618;10.764;2024-02-04T14:57:06;4.65;;;1.00;;
57247;SDS011;55809;46.618;10.764;2024-02-04T14:59:38;5.00;;;1.13;;
57247;SDS011;55809;46.618;10.764;2024-02-04T15:02:17;6.22;;;1.65;;
57247;SDS011;55809;46.618;10.764;2024-02-04T15:04:59;11.00;;;4.03;;
57247;SDS011;55809;46.618;10.764;2024-02-04T15:07:28;14.85;;;4.97;;
57247;SDS011;55809;46.618;10.764;2024-02-04T15:10:06;7.53;;;2.00;;
57247;SDS011;55809;46.618;10.764;2024-02-04T15:18:37;1.92;;;0.65;;
57247;SDS011;55809;46.618;10.764;2024-02-04T15:21:20;1.45;;;0.68;;
57247;SDS011;55809;46.618;10.764;2024-02-04T15:24:06;1.38;;;0.65;;
57247;SDS011;55809;46.618;10.764;2024-02-04T15:26:42;1.95;;;1.00;;
57247;SDS011;55809;46.618;10.764;2024-02-04T15:29:17;4.00;;;1.52;;
57247;SDS011;55809;46.618;10.764;2024-02-04T15:31:57;3.33;;;1.48;;
57247;SDS011;55809;46.618;10.764;2024-02-04T15:34:28;3.40;;;1.00;;
57247;SDS011;55809;46.618;10.764;2024-02-04T15:37:08;0.88;;;0.50;;
57247;SDS011;55809;46.618;10.764;2024-02-04T15:39:44;0.65;;;0.30;;
57247;SDS011;55809;46.618;10.764;2024-02-04T15:42:25;2.95;;;1.00;;
57247;SDS011;55809;46.618;10.764;2024-02-04T15:44:57;3.22;;;1.38;;
57247;SDS011;55809;46.618;10.764;2024-02-04T15:50:23;2.65;;;0.55;;
57247;SDS011;55809;46.618;10.764;2024-02-04T15:52:58;1.83;;;0.70;;
57247;SDS011;55809;46.618;10.764;2024-02-04T15:55:34;3.65;;;1.35;;
57247;SDS011;55809;46.618;10.764;2024-02-04T15:58:19;2.72;;;1.17;;
57247;SDS011;55809;46.618;10.764;2024-02-04T16:00:59;2.22;;;0.80;;
57247;SDS011;55809;46.618;10.764;2024-02-04T16:06:28;1.30;;;0.60;;
57247;SDS011;55809;46.618;10.764;2024-02-04T16:09:00;1.25;;;0.60;;
57247;SDS011;55809;46.618;10.764;2024-02-04T16:11:40;0.55;;;0.20;;
57247;SDS011;55809;46.618;10.764;2024-02-04T16:14:21;0.77;;;0.15;;
57247;SDS011;55809;46.618;10.764;2024-02-04T16:17:22;1.83;;;0.10;;
57247;SDS011;55809;46.618;10.764;2024-02-04T16:20:04;0.43;;;0.10;;